createdAt,value
2017-08-17T00:02:25.992Z,65.90
2017-08-17T00:04:54.277Z,65.90
2017-08-17T00:07:22.549Z,66.10
2017-08-17T00:09:50.808Z,66.00
2017-08-17T00:12:19.138Z,65.70
2017-08-17T00:14:47.416Z,65.60
2017-08-17T00:17:15.710Z,65.70
2017-08-17T00:19:44.762Z,66.10
2017-08-17T00:22:13.032Z,66.10
2017-08-17T00:24:41.309Z,66.00
2017-08-17T00:27:10.324Z,66.80
2017-08-17T00:29:38.649Z,66.50
2017-08-17T00:32:07.689Z,67.00
2017-08-17T00:34:35.987Z,66.90
2017-08-17T00:37:05.119Z,67.30
2017-08-17T00:39:33.415Z,67.30
2017-08-17T00:42:01.672Z,67.50
2017-08-17T00:44:29.948Z,67.40
2017-08-17T00:46:59.002Z,67.20
2017-08-17T00:49:27.252Z,67.20
2017-08-17T00:51:55.529Z,67.00
2017-08-17T00:54:23.830Z,67.10
2017-08-17T00:56:52.168Z,67.30
2017-08-17T00:59:21.270Z,66.70
2017-08-17T01:01:49.558Z,66.70
2017-08-17T01:04:17.820Z,66.70
2017-08-17T01:06:46.123Z,66.80
2017-08-17T01:09:15.136Z,66.70
2017-08-17T01:11:43.413Z,66.70
2017-08-17T01:14:11.677Z,66.80
2017-08-17T01:16:39.971Z,66.90
2017-08-17T01:19:08.985Z,67.20
2017-08-17T01:21:37.289Z,67.30
2017-08-17T01:24:05.594Z,67.20
2017-08-17T01:26:33.882Z,67.10
2017-08-17T01:29:02.197Z,67.50
2017-08-17T01:31:31.214Z,67.80
2017-08-17T01:33:59.507Z,68.40
2017-08-17T01:36:27.785Z,68.00
2017-08-17T01:38:56.050Z,67.80
2017-08-17T01:41:24.300Z,68.00
2017-08-17T01:43:52.609Z,68.30
2017-08-17T01:46:20.889Z,67.70
2017-08-17T01:48:49.187Z,67.30
2017-08-17T01:51:18.229Z,67.90
2017-08-17T01:53:46.518Z,67.20
2017-08-17T01:56:14.777Z,67.10
2017-08-17T01:58:43.049Z,67.20
2017-08-17T02:01:12.073Z,67.50
2017-08-17T02:03:40.329Z,67.10
2017-08-17T02:06:08.608Z,67.00
2017-08-17T02:08:36.865Z,66.80
2017-08-17T02:11:05.145Z,66.80
2017-08-17T02:13:33.412Z,67.10
2017-08-17T02:16:01.711Z,67.50
2017-08-17T02:18:29.970Z,67.50
2017-08-17T02:20:58.270Z,67.80
2017-08-17T02:23:26.558Z,67.80
2017-08-17T02:25:54.826Z,67.70
2017-08-17T02:28:23.899Z,67.60
2017-08-17T02:30:52.185Z,67.60
2017-08-17T02:33:20.475Z,67.70
2017-08-17T02:35:48.745Z,67.50
2017-08-17T02:38:17.001Z,67.30
2017-08-17T02:40:45.256Z,67.20
2017-08-17T02:43:13.541Z,67.40
2017-08-17T02:45:41.891Z,67.80
2017-08-17T02:48:10.184Z,67.90
2017-08-17T02:50:39.228Z,68.50
2017-08-17T02:53:07.485Z,68.50
2017-08-17T02:55:35.753Z,68.40
2017-08-17T02:58:04.066Z,68.30
2017-08-17T03:00:32.408Z,67.80
2017-08-17T03:03:01.474Z,67.70
2017-08-17T03:05:29.778Z,67.70
2017-08-17T03:07:58.066Z,67.70
2017-08-17T03:10:26.325Z,68.20
2017-08-17T03:12:54.642Z,68.40
2017-08-17T03:15:22.936Z,68.50
2017-08-17T03:17:53.142Z,68.30
2017-08-17T03:20:21.438Z,68.10
2017-08-17T03:22:49.717Z,68.00
2017-08-17T03:25:18.769Z,68.10
2017-08-17T03:27:47.032Z,68.10
2017-08-17T03:30:15.319Z,68.50
2017-08-17T03:32:44.374Z,68.50
2017-08-17T03:35:12.646Z,68.40
2017-08-17T03:37:41.670Z,68.50
2017-08-17T03:40:09.930Z,68.50
2017-08-17T03:42:38.243Z,68.70
2017-08-17T03:45:07.173Z,68.90
2017-08-17T03:47:35.467Z,69.20
2017-08-17T03:50:03.740Z,69.60
2017-08-17T03:52:32.772Z,71.20
2017-08-17T03:55:01.133Z,71.20
2017-08-17T03:57:29.409Z,71.10
2017-08-17T03:59:57.689Z,70.90
2017-08-17T04:02:26.746Z,70.20
2017-08-17T04:04:55.062Z,70.10
2017-08-17T04:07:23.354Z,69.90
2017-08-17T04:09:51.638Z,69.80
2017-08-17T04:12:19.952Z,69.80
2017-08-17T04:14:48.217Z,70.00
2017-08-17T04:17:16.468Z,70.10
2017-08-17T04:19:44.794Z,70.10
2017-08-17T04:22:13.808Z,69.10
2017-08-17T04:24:42.057Z,69.00
2017-08-17T04:27:10.377Z,68.20
2017-08-17T04:29:38.670Z,67.70
2017-08-17T04:32:06.950Z,66.90
2017-08-17T04:34:35.233Z,66.20
2017-08-17T04:37:03.484Z,65.70
2017-08-17T04:39:31.773Z,65.20
2017-08-17T04:42:00.049Z,64.70
2017-08-17T04:44:29.098Z,64.30
2017-08-17T04:46:57.344Z,64.20
2017-08-17T04:49:25.652Z,64.20
2017-08-17T04:51:54.689Z,64.00
2017-08-17T04:54:22.676Z,64.00
2017-08-17T04:57:21.369Z,63.70
2017-08-17T04:59:49.656Z,63.60
2017-08-17T05:02:17.895Z,63.60
2017-08-17T05:04:46.200Z,63.50
2017-08-17T05:07:14.453Z,63.40
2017-08-17T05:09:42.700Z,63.40
2017-08-17T05:12:10.990Z,63.30
2017-08-17T05:14:39.242Z,63.30
2017-08-17T05:17:07.540Z,63.30
2017-08-17T05:19:35.854Z,63.20
2017-08-17T05:22:04.134Z,63.20
2017-08-17T05:24:32.381Z,63.10
2017-08-17T05:27:00.644Z,63.00
2017-08-17T05:29:28.893Z,63.10
2017-08-17T05:31:57.179Z,63.00
2017-08-17T05:34:26.243Z,63.80
2017-08-17T05:36:54.517Z,63.00
2017-08-17T05:39:22.790Z,63.00
2017-08-17T05:41:51.828Z,62.90
2017-08-17T05:44:20.119Z,62.90
2017-08-17T05:46:49.170Z,62.90
2017-08-17T05:49:17.515Z,62.90
2017-08-17T05:51:45.765Z,62.90
2017-08-17T05:54:14.010Z,62.80
2017-08-17T05:56:43.762Z,62.80
2017-08-17T05:59:12.840Z,63.40
2017-08-17T06:01:41.093Z,62.80
2017-08-17T06:04:09.373Z,62.90
2017-08-17T06:06:38.393Z,63.40
2017-08-17T06:09:06.682Z,62.80
2017-08-17T06:11:35.027Z,63.50
2017-08-17T06:14:03.303Z,62.80
2017-08-17T06:16:31.573Z,62.80
2017-08-17T06:18:59.832Z,62.90
2017-08-17T06:21:28.078Z,62.90
2017-08-17T06:23:56.363Z,62.90
2017-08-17T06:26:24.670Z,63.00
2017-08-17T06:28:52.912Z,63.00
2017-08-17T06:31:21.199Z,63.00
2017-08-17T06:33:49.505Z,63.00
2017-08-17T06:36:17.785Z,63.20
2017-08-17T06:38:46.062Z,63.30
2017-08-17T06:41:14.368Z,63.40
2017-08-17T06:43:42.617Z,63.40
2017-08-17T06:46:10.908Z,63.40
2017-08-17T06:48:39.957Z,63.50
2017-08-17T06:51:08.259Z,63.30
2017-08-17T06:53:37.315Z,63.40
2017-08-17T06:56:05.584Z,63.40
2017-08-17T06:58:34.602Z,63.50
2017-08-17T07:01:02.846Z,63.50
2017-08-17T07:03:31.108Z,63.50
2017-08-17T07:05:59.389Z,63.40
2017-08-17T07:08:27.680Z,63.40
2017-08-17T07:10:56.252Z,63.50
2017-08-17T07:13:24.497Z,63.50
2017-08-17T07:15:52.782Z,63.50
2017-08-17T07:18:21.048Z,64.10
2017-08-17T07:20:49.292Z,63.50
2017-08-17T07:23:17.579Z,63.50
2017-08-17T07:25:45.886Z,63.50
2017-08-17T07:28:14.216Z,63.50
2017-08-17T07:30:42.461Z,63.60
2017-08-17T07:33:10.741Z,63.50
2017-08-17T07:35:39.786Z,63.20
2017-08-17T07:38:08.044Z,63.60
2017-08-17T07:40:36.300Z,63.50
2017-08-17T07:43:04.598Z,63.50
2017-08-17T07:45:32.695Z,63.60
2017-08-17T07:48:00.956Z,63.60
2017-08-17T07:50:29.715Z,63.60
2017-08-17T07:52:57.989Z,63.60
2017-08-17T07:55:26.298Z,63.60
2017-08-17T07:57:54.561Z,63.70
2017-08-17T08:00:22.659Z,63.70
2017-08-17T08:02:50.920Z,63.70
2017-08-17T08:05:19.164Z,63.60
2017-08-17T08:07:47.442Z,63.60
2017-08-17T08:10:15.709Z,63.70
2017-08-17T08:12:43.965Z,63.70
2017-08-17T08:15:12.251Z,63.70
2017-08-17T08:17:40.562Z,63.70
2017-08-17T08:20:08.820Z,63.70
2017-08-17T08:22:37.097Z,63.60
2017-08-17T08:25:05.391Z,63.70
2017-08-17T08:27:33.660Z,63.70
2017-08-17T08:30:01.943Z,63.70
2017-08-17T08:32:31.035Z,63.60
2017-08-17T08:35:00.086Z,63.60
2017-08-17T08:37:28.364Z,63.50
2017-08-17T08:39:57.421Z,63.60
2017-08-17T08:42:25.518Z,63.50
2017-08-17T08:44:53.807Z,63.60
2017-08-17T08:47:22.111Z,63.60
2017-08-17T08:49:50.401Z,63.50
2017-08-17T08:52:18.677Z,63.50
2017-08-17T08:54:46.932Z,63.50
2017-08-17T08:57:15.235Z,63.50
2017-08-17T08:59:43.510Z,63.60
2017-08-17T09:02:11.731Z,63.60
2017-08-17T09:04:39.994Z,63.60
2017-08-17T09:07:08.242Z,64.20
2017-08-17T09:09:36.525Z,63.60
2017-08-17T09:12:04.814Z,63.60
2017-08-17T09:14:33.829Z,63.60
2017-08-17T09:17:02.138Z,63.60
2017-08-17T09:19:30.384Z,63.70
2017-08-17T09:21:58.637Z,64.50
2017-08-17T09:24:26.943Z,63.80
2017-08-17T09:26:56.026Z,63.90
2017-08-17T09:29:24.272Z,63.80
2017-08-17T09:31:53.346Z,63.90
2017-08-17T09:34:22.474Z,63.90
2017-08-17T09:36:50.721Z,63.90
2017-08-17T09:39:19.014Z,63.90
2017-08-17T09:41:47.299Z,64.00
2017-08-17T09:44:16.321Z,64.10
2017-08-17T09:46:44.599Z,64.00
2017-08-17T09:49:12.878Z,64.10
2017-08-17T09:51:41.162Z,64.10
2017-08-17T09:54:10.200Z,64.20
2017-08-17T09:56:38.457Z,64.20
2017-08-17T09:59:06.701Z,64.30
2017-08-17T10:01:34.962Z,64.30
2017-08-17T10:04:03.216Z,64.40
2017-08-17T10:06:31.489Z,64.40
2017-08-17T10:08:59.769Z,64.50
2017-08-17T10:11:28.025Z,64.50
2017-08-17T10:13:56.317Z,64.50
2017-08-17T10:16:25.353Z,64.50
2017-08-17T10:18:53.596Z,64.50
2017-08-17T10:21:21.879Z,64.50
2017-08-17T10:23:50.134Z,64.70
2017-08-17T10:26:18.414Z,64.80
2017-08-17T10:28:46.852Z,64.80
2017-08-17T10:31:15.188Z,64.80
2017-08-17T10:33:43.580Z,64.70
2017-08-17T10:36:11.822Z,64.70
2017-08-17T10:38:40.108Z,64.70
2017-08-17T10:41:09.484Z,64.60
2017-08-17T10:43:37.763Z,64.60
2017-08-17T10:46:06.085Z,64.70
2017-08-17T10:48:34.371Z,64.70
2017-08-17T10:51:02.664Z,64.80
2017-08-17T10:53:31.741Z,64.80
2017-08-17T10:56:00.027Z,64.70
2017-08-17T10:58:28.277Z,64.70
2017-08-17T11:00:57.304Z,64.70
2017-08-17T11:03:25.586Z,65.40
2017-08-17T11:05:53.845Z,64.70
2017-08-17T11:08:22.104Z,64.80
2017-08-17T11:10:50.387Z,64.70
2017-08-17T11:13:19.430Z,65.40
2017-08-17T11:15:47.738Z,64.80
2017-08-17T11:18:16.744Z,64.80
2017-08-17T11:20:45.026Z,64.80
2017-08-17T11:23:13.327Z,64.90
2017-08-17T11:25:42.375Z,65.00
2017-08-17T11:28:10.654Z,64.90
2017-08-17T11:30:38.950Z,65.10
2017-08-17T11:33:07.212Z,65.00
2017-08-17T11:35:35.490Z,65.00
2017-08-17T11:38:03.808Z,65.00
2017-08-17T11:40:32.107Z,65.10
2017-08-17T11:43:00.348Z,65.10
2017-08-17T11:45:28.621Z,65.30
2017-08-17T11:47:56.910Z,65.20
2017-08-17T11:50:25.204Z,65.00
2017-08-17T11:52:54.235Z,65.50
2017-08-17T11:55:22.480Z,64.90
2017-08-17T11:57:50.771Z,64.80
2017-08-17T12:00:19.045Z,64.70
2017-08-17T12:02:47.292Z,64.70
2017-08-17T12:05:15.576Z,64.70
2017-08-17T12:07:44.616Z,64.70
2017-08-17T12:10:12.861Z,64.70
2017-08-17T12:12:41.152Z,64.80
2017-08-17T12:15:09.421Z,65.00
2017-08-17T12:17:37.706Z,65.50
2017-08-17T12:20:06.749Z,65.40
2017-08-17T12:22:35.093Z,65.40
2017-08-17T12:25:03.343Z,65.40
2017-08-17T12:27:31.588Z,65.50
2017-08-17T12:29:59.878Z,65.70
2017-08-17T12:32:28.170Z,65.80
2017-08-17T12:34:57.217Z,66.40
2017-08-17T12:37:25.484Z,65.80
2017-08-17T12:39:53.771Z,65.80
2017-08-17T12:42:22.827Z,66.00
2017-08-17T12:44:51.126Z,65.90
2017-08-17T12:47:19.189Z,65.90
2017-08-17T12:49:47.433Z,66.00
2017-08-17T12:52:16.460Z,65.80
2017-08-17T12:54:44.704Z,65.80
2017-08-17T12:57:12.981Z,65.80
2017-08-17T12:59:41.273Z,65.70
2017-08-17T13:02:09.532Z,65.60
2017-08-17T13:04:38.556Z,64.80
2017-08-17T13:07:06.817Z,65.40
2017-08-17T13:09:35.215Z,65.30
2017-08-17T13:12:03.466Z,65.30
2017-08-17T13:14:31.766Z,65.20
2017-08-17T13:17:00.045Z,65.10
2017-08-17T13:19:28.293Z,65.00
2017-08-17T13:21:57.345Z,64.90
2017-08-17T13:24:25.626Z,64.80
2017-08-17T13:26:54.755Z,64.80
2017-08-17T13:29:23.059Z,65.40
2017-08-17T13:31:52.073Z,64.70
2017-08-17T13:34:20.328Z,64.70
2017-08-17T13:36:48.605Z,64.60
2017-08-17T13:39:16.888Z,64.60
2017-08-17T13:41:45.140Z,64.70
2017-08-17T13:44:13.434Z,64.70
2017-08-17T13:46:42.466Z,64.90
2017-08-17T13:49:10.742Z,64.90
2017-08-17T13:51:39.016Z,64.90
2017-08-17T13:54:07.298Z,64.80
2017-08-17T13:56:36.313Z,64.80
2017-08-17T13:59:04.611Z,64.70
2017-08-17T14:01:32.899Z,64.70
2017-08-17T14:04:01.913Z,64.70
2017-08-17T14:06:30.211Z,64.70
2017-08-17T14:08:58.490Z,64.80
2017-08-17T14:11:27.502Z,64.40
2017-08-17T14:13:55.589Z,64.80
2017-08-17T14:16:23.836Z,64.80
2017-08-17T14:18:52.084Z,64.80
2017-08-17T14:21:20.378Z,65.00
2017-08-17T14:23:48.629Z,65.10
2017-08-17T14:26:16.910Z,65.10
2017-08-17T14:28:45.174Z,65.10
2017-08-17T14:31:14.189Z,65.30
2017-08-17T14:33:42.436Z,65.10
2017-08-17T14:36:10.712Z,65.10
2017-08-17T14:38:39.007Z,65.20
2017-08-17T14:41:07.290Z,65.20
2017-08-17T14:43:35.599Z,65.20
2017-08-17T14:46:03.845Z,65.20
2017-08-17T14:48:32.085Z,65.30
2017-08-17T14:51:01.158Z,65.70
2017-08-17T14:53:30.210Z,65.70
2017-08-17T14:55:58.456Z,65.60
2017-08-17T14:58:26.730Z,65.60
2017-08-17T15:00:54.983Z,65.60
2017-08-17T15:03:23.271Z,65.60
2017-08-17T15:05:52.339Z,66.10
2017-08-17T15:08:20.631Z,65.90
2017-08-17T15:10:48.909Z,66.10
2017-08-17T15:13:17.168Z,66.30
2017-08-17T15:15:45.446Z,66.60
2017-08-17T15:18:13.692Z,67.00
2017-08-17T15:20:42.050Z,67.10
2017-08-17T15:23:10.292Z,67.40
2017-08-17T15:25:38.537Z,67.60
2017-08-17T15:28:06.859Z,67.90
2017-08-17T15:30:35.113Z,68.10
2017-08-17T15:33:03.366Z,68.00
2017-08-17T15:35:31.626Z,67.90
2017-08-17T15:37:59.948Z,68.20
2017-08-17T15:40:28.013Z,68.10
2017-08-17T15:42:56.320Z,68.20
2017-08-17T15:45:24.569Z,68.10
2017-08-17T15:47:52.858Z,68.00
2017-08-17T15:50:21.133Z,68.00
2017-08-17T15:52:50.201Z,68.20
2017-08-17T15:55:19.339Z,68.20
2017-08-17T15:57:47.640Z,68.20
2017-08-17T16:00:16.690Z,68.00
2017-08-17T16:02:44.938Z,68.00
2017-08-17T16:05:13.210Z,68.00
2017-08-17T16:07:41.494Z,68.00
2017-08-17T16:10:09.749Z,68.10
2017-08-17T16:12:38.008Z,68.50
2017-08-17T16:15:06.282Z,68.30
2017-08-17T16:17:35.322Z,68.70
2017-08-17T16:20:03.623Z,68.20
2017-08-17T16:22:32.628Z,68.10
2017-08-17T16:25:00.880Z,68.10
2017-08-17T16:27:29.177Z,68.40
2017-08-17T16:29:57.449Z,68.40
2017-08-17T16:32:25.729Z,68.30
2017-08-17T16:34:54.031Z,68.40
2017-08-17T16:37:22.309Z,68.30
2017-08-17T16:39:50.373Z,68.50
2017-08-17T16:42:18.674Z,68.40
2017-08-17T16:44:47.692Z,68.70
2017-08-17T16:47:15.945Z,68.70
2017-08-17T16:49:44.232Z,65.90
2017-08-17T16:52:12.492Z,63.40
2017-08-17T16:54:40.817Z,63.00
2017-08-17T16:57:09.122Z,63.10
2017-08-17T16:59:37.386Z,64.10
2017-08-17T17:02:05.667Z,64.50
2017-08-17T17:04:34.717Z,64.90
2017-08-17T17:07:02.995Z,64.80
2017-08-17T17:09:31.297Z,65.00
2017-08-17T17:11:59.615Z,65.00
2017-08-17T17:14:27.909Z,65.10
2017-08-17T17:16:56.200Z,65.10
2017-08-17T17:19:24.477Z,65.10
2017-08-17T17:21:52.728Z,65.20
2017-08-17T17:24:20.835Z,65.30
2017-08-17T17:26:49.868Z,65.50
2017-08-17T17:29:18.120Z,65.40
2017-08-17T17:31:46.373Z,65.60
2017-08-17T17:34:15.330Z,65.80
2017-08-17T17:36:43.601Z,65.80
2017-08-17T17:39:11.889Z,65.80
2017-08-17T17:41:41.086Z,66.10
2017-08-17T17:44:10.369Z,65.90
2017-08-17T17:46:38.624Z,66.10
2017-08-17T17:49:06.884Z,66.10
2017-08-17T17:51:35.125Z,66.30
2017-08-17T17:54:03.382Z,66.40
2017-08-17T17:56:31.653Z,66.40
2017-08-17T17:58:59.934Z,66.40
2017-08-17T18:01:28.952Z,66.50
2017-08-17T18:03:57.251Z,66.50
2017-08-17T18:06:25.534Z,66.50
2017-08-17T18:08:54.583Z,66.50
2017-08-17T18:11:22.865Z,66.50
2017-08-17T18:13:51.125Z,66.50
2017-08-17T18:16:19.411Z,66.50
2017-08-17T18:18:47.697Z,66.60
2017-08-17T18:21:15.957Z,65.90
2017-08-17T18:23:45.508Z,64.60
2017-08-17T18:26:14.538Z,65.20
2017-08-17T18:28:42.826Z,65.20
2017-08-17T18:31:11.089Z,66.90
2017-08-17T18:33:39.386Z,68.30
2017-08-17T18:36:07.673Z,69.90
2017-08-17T18:38:35.925Z,70.60
2017-08-17T18:41:04.249Z,71.50
2017-08-17T18:43:33.324Z,73.00
2017-08-17T18:46:02.354Z,74.10
2017-08-17T18:48:30.646Z,74.20
2017-08-17T18:50:58.939Z,74.90
2017-08-17T18:53:27.239Z,75.00
2017-08-17T18:55:55.552Z,75.50
2017-08-17T18:58:24.588Z,76.40
2017-08-17T19:00:52.869Z,76.40
2017-08-17T19:03:21.153Z,77.00
2017-08-17T19:05:49.441Z,77.30
2017-08-17T19:08:17.706Z,77.10
2017-08-17T19:10:46.378Z,76.00
2017-08-17T19:13:14.676Z,74.60
2017-08-17T19:15:43.734Z,73.30
2017-08-17T19:18:12.024Z,72.80
2017-08-17T19:20:40.283Z,72.20
2017-08-17T19:23:08.527Z,71.60
2017-08-17T19:25:36.806Z,71.20
2017-08-17T19:28:05.854Z,71.40
2017-08-17T19:30:34.141Z,70.80
2017-08-17T19:33:03.182Z,70.50
2017-08-17T19:35:31.472Z,70.40
2017-08-17T19:37:59.721Z,70.30
2017-08-17T19:40:28.313Z,70.20
2017-08-17T19:42:57.330Z,70.70
2017-08-17T19:45:25.853Z,70.00
2017-08-17T19:47:54.888Z,69.80
2017-08-17T19:50:23.177Z,69.70
2017-08-17T19:52:51.425Z,69.70
2017-08-17T19:55:19.726Z,69.60
2017-08-17T19:57:47.972Z,69.50
2017-08-17T20:00:17.031Z,69.50
2017-08-17T20:02:45.302Z,69.40
2017-08-17T20:05:14.313Z,69.40
2017-08-17T20:07:42.595Z,69.30
2017-08-17T20:10:10.901Z,69.40
2017-08-17T20:12:39.956Z,69.40
2017-08-17T20:15:08.209Z,69.40
2017-08-17T20:17:36.847Z,69.40
2017-08-17T20:20:05.092Z,69.40
2017-08-17T20:22:33.345Z,69.50
2017-08-17T20:25:01.634Z,69.60
2017-08-17T20:27:29.897Z,69.70
2017-08-17T20:29:58.175Z,69.70
2017-08-17T20:32:26.482Z,69.70
2017-08-17T20:34:54.736Z,69.80
2017-08-17T20:37:23.790Z,69.90
2017-08-17T20:39:52.061Z,69.80
2017-08-17T20:42:21.114Z,69.90
2017-08-17T20:44:49.368Z,69.90
2017-08-17T20:47:17.662Z,70.00
2017-08-17T20:49:46.677Z,70.20
2017-08-17T20:52:14.949Z,70.00
2017-08-17T20:54:43.233Z,70.00
2017-08-17T20:57:11.517Z,70.10
2017-08-17T20:59:40.536Z,70.20
2017-08-17T21:02:08.799Z,70.10
2017-08-17T21:04:37.078Z,70.20
2017-08-17T21:07:05.357Z,70.20
2017-08-17T21:09:33.424Z,70.20
2017-08-17T21:12:02.470Z,70.30
2017-08-17T21:14:30.722Z,70.20
2017-08-17T21:16:59.030Z,70.30
2017-08-17T21:19:27.280Z,70.30
2017-08-17T21:21:56.521Z,69.50
2017-08-17T21:24:24.817Z,69.50
2017-08-17T21:26:53.870Z,71.70
2017-08-17T21:29:22.162Z,71.60
2017-08-17T21:31:51.239Z,73.50
2017-08-17T21:34:20.295Z,74.30
2017-08-17T21:36:48.540Z,74.20
2017-08-17T21:39:16.824Z,74.70
2017-08-17T21:41:45.115Z,75.60
2017-08-17T21:44:13.410Z,75.20
2017-08-17T21:46:41.717Z,75.70
2017-08-17T21:49:10.748Z,75.90
2017-08-17T21:51:39.038Z,75.90
2017-08-17T21:54:07.322Z,76.20
2017-08-17T21:56:36.257Z,76.40
2017-08-17T21:59:05.310Z,77.10
2017-08-17T22:01:33.622Z,77.10
2017-08-17T22:04:01.911Z,77.20
2017-08-17T22:06:30.162Z,76.20
2017-08-17T22:08:58.458Z,75.00
2017-08-17T22:11:26.742Z,74.00
2017-08-17T22:13:54.993Z,73.20
2017-08-17T22:16:24.026Z,71.80
2017-08-17T22:18:52.122Z,71.70
2017-08-17T22:21:21.146Z,70.90
2017-08-17T22:23:49.445Z,70.90
2017-08-17T22:26:17.701Z,70.60
2017-08-17T22:28:45.949Z,70.40
2017-08-17T22:31:14.237Z,70.30
2017-08-17T22:33:43.252Z,70.40
2017-08-17T22:36:11.320Z,70.30
2017-08-17T22:38:39.619Z,70.30
2017-08-17T22:41:07.677Z,70.30
2017-08-17T22:43:35.923Z,71.00
2017-08-17T22:46:04.236Z,70.60
2017-08-17T22:48:32.485Z,70.30
2017-08-17T22:51:00.732Z,70.40
2017-08-17T22:53:29.770Z,70.30
2017-08-17T22:55:58.017Z,70.20
2017-08-17T22:58:26.307Z,70.20
2017-08-17T23:00:54.611Z,70.30
2017-08-17T23:03:22.869Z,70.30
2017-08-17T23:05:51.137Z,70.40
2017-08-17T23:08:19.426Z,70.40
2017-08-17T23:10:47.424Z,70.40
2017-08-17T23:13:16.466Z,70.80
2017-08-17T23:15:44.770Z,70.70
2017-08-17T23:18:13.025Z,70.80
2017-08-17T23:20:41.272Z,70.80
2017-08-17T23:23:10.312Z,70.20
2017-08-17T23:25:38.592Z,70.80
2017-08-17T23:28:06.840Z,70.80
2017-08-17T23:30:35.134Z,70.80
2017-08-17T23:33:04.178Z,70.80
2017-08-17T23:35:32.436Z,70.80
2017-08-17T23:38:00.730Z,70.80
2017-08-17T23:40:29.778Z,70.70
2017-08-17T23:42:58.063Z,70.60
2017-08-17T23:45:27.127Z,70.70
2017-08-17T23:47:55.410Z,70.60
2017-08-17T23:50:24.464Z,71.20
2017-08-17T23:52:52.973Z,70.50
2017-08-17T23:55:21.256Z,70.50
2017-08-17T23:57:49.511Z,70.70
